Terminal Aerodrome Forecast
Issued by NWS

Home | Current Version | Previous Version | Text Only | Print | Product List | Glossary On
Versions: 1 2 3 4 5 6 7 8 9 10 11 12 13 14 15 16 17 18 19 20 21 22 23 24 25 26 27 28 29 30 31 32 33 34 35 36 37 38 39 40 41 42 43 44 45 46 47 48 49 50
000
FTUS45 KBOU 261419 AAA
TAFAPA
TAF AMD
KAPA 261419Z 2614/2712 10005KT P6SM VCSH SCT035 BKN070
      TEMPO 2614/2616 2SM -SN BR BKN035
     FM262000 08008G14KT 3SM -SN BR SCT006 BKN014 OVC020
     FM270100 12008KT 5SM -SN SCT018 BKN030
     FM270500 16010G18KT P6SM VCSH SCT030 BKN050
     FM271100 17008KT P6SM SCT035 BKN060=

USA.gov is the U.S. government's official web portal to all federal, state and local government web resources and services.